createdAt,value
2023-05-19T00:01:13.609Z,13.30
2023-05-19T00:03:48.831Z,13.30
2023-05-19T00:06:16.155Z,13.20
2023-05-19T00:08:42.778Z,13.20
2023-05-19T00:11:09.573Z,13.20
2023-05-19T00:13:36.293Z,13.10
2023-05-19T00:16:03.048Z,13.10
2023-05-19T00:18:30.279Z,13.10
2023-05-19T00:20:56.886Z,13.10
2023-05-19T00:23:23.511Z,13.00
2023-05-19T00:25:50.201Z,13.00
2023-05-19T00:28:16.857Z,13.00
2023-05-19T00:30:43.572Z,12.90
2023-05-19T00:33:10.324Z,12.90
2023-05-19T00:35:36.984Z,12.90
2023-05-19T00:38:03.599Z,12.80
2023-05-19T00:40:31.433Z,12.80
2023-05-19T00:42:58.220Z,12.80
2023-05-19T00:45:25.168Z,12.80
2023-05-19T00:47:51.839Z,12.70
2023-05-19T00:50:18.668Z,12.70
2023-05-19T00:52:45.410Z,12.80
2023-05-19T00:55:12.136Z,12.80
2023-05-19T00:57:38.769Z,12.80
2023-05-19T01:00:05.763Z,12.80
2023-05-19T01:02:32.577Z,12.80
2023-05-19T01:04:59.667Z,12.80
2023-05-19T01:07:27.322Z,12.90
2023-05-19T01:09:54.042Z,12.90
2023-05-19T01:12:20.673Z,12.90
2023-05-19T01:14:47.564Z,12.90
2023-05-19T01:17:21.224Z,13.00
2023-05-19T01:19:54.044Z,13.00
2023-05-19T01:22:23.619Z,13.00
2023-05-19T01:24:59.578Z,13.00
2023-05-19T01:27:37.148Z,13.10
2023-05-19T01:30:25.668Z,13.10
2023-05-19T01:32:57.170Z,13.10
2023-05-19T01:35:24.972Z,13.10
2023-05-19T01:37:54.289Z,13.10
2023-05-19T01:40:22.003Z,13.10
2023-05-19T01:42:49.150Z,13.10
2023-05-19T01:45:16.073Z,13.10
2023-05-19T01:47:43.614Z,13.10
2023-05-19T01:50:11.044Z,13.10
2023-05-19T01:52:37.898Z,13.20
2023-05-19T01:55:04.978Z,13.20
2023-05-19T01:57:50.305Z,13.20
2023-05-19T02:00:35.475Z,13.20
2023-05-19T02:03:05.161Z,13.20
2023-05-19T02:05:36.279Z,13.20
2023-05-19T02:08:18.327Z,13.20
2023-05-19T02:10:50.264Z,13.20
2023-05-19T02:13:18.906Z,13.20
2023-05-19T02:15:45.986Z,13.20
2023-05-19T02:18:13.939Z,13.10
2023-05-19T02:20:40.725Z,13.10
2023-05-19T02:23:07.380Z,13.10
2023-05-19T02:25:33.984Z,13.10
2023-05-19T02:28:00.604Z,13.10
2023-05-19T02:30:27.249Z,13.00
2023-05-19T02:32:54.293Z,13.00
2023-05-19T02:35:21.251Z,13.00
2023-05-19T02:37:47.964Z,13.00
2023-05-19T02:40:14.629Z,13.00
2023-05-19T02:42:42.305Z,12.90
2023-05-19T02:45:09.022Z,12.90
2023-05-19T02:47:37.027Z,12.90
2023-05-19T02:50:04.620Z,12.90
2023-05-19T02:52:31.200Z,12.80
2023-05-19T02:54:57.780Z,12.80
2023-05-19T02:57:24.468Z,12.80
2023-05-19T02:59:51.119Z,12.80
2023-05-19T03:02:17.739Z,12.80
2023-05-19T03:04:45.565Z,12.70
2023-05-19T03:07:13.513Z,12.70
2023-05-19T03:09:40.300Z,12.70
2023-05-19T03:12:07.639Z,12.70
2023-05-19T03:14:34.872Z,12.60
2023-05-19T03:17:01.759Z,12.60
2023-05-19T03:19:28.630Z,12.60
2023-05-19T03:21:56.420Z,12.60
2023-05-19T03:24:23.079Z,12.60
2023-05-19T03:26:50.332Z,12.60
2023-05-19T03:29:17.022Z,12.60
2023-05-19T03:31:43.710Z,12.60
2023-05-19T03:34:10.328Z,12.60
2023-05-19T03:36:40.196Z,12.70
2023-05-19T03:39:06.963Z,12.60
2023-05-19T03:41:33.605Z,12.60
2023-05-19T03:44:00.221Z,12.60
2023-05-19T03:46:26.911Z,12.60
2023-05-19T03:48:53.567Z,12.60
2023-05-19T03:51:20.181Z,12.60
2023-05-19T03:53:46.953Z,12.50
2023-05-19T03:56:13.987Z,12.40
2023-05-19T03:58:44.873Z,12.40
2023-05-19T04:01:11.801Z,12.40
2023-05-19T04:03:38.493Z,12.30
2023-05-19T04:06:05.242Z,12.30
2023-05-19T04:08:32.174Z,12.30
2023-05-19T04:10:58.820Z,12.30
2023-05-19T04:13:25.471Z,12.30
2023-05-19T04:15:52.233Z,12.30
2023-05-19T04:18:19.442Z,12.30
2023-05-19T04:20:46.042Z,12.30
2023-05-19T04:23:12.658Z,12.30
2023-05-19T04:25:40.831Z,12.20
2023-05-19T04:28:07.695Z,12.20
2023-05-19T04:30:34.671Z,12.10
2023-05-19T04:33:04.837Z,12.10
2023-05-19T04:35:31.611Z,12.10
2023-05-19T04:37:58.348Z,12.10
2023-05-19T04:40:24.971Z,12.10
2023-05-19T04:42:52.405Z,12.10
2023-05-19T04:45:19.051Z,12.10
2023-05-19T04:47:48.095Z,12.10
2023-05-19T04:50:14.880Z,12.10
2023-05-19T04:52:47.602Z,12.10
2023-05-19T04:55:14.255Z,12.10
2023-05-19T04:57:40.941Z,12.10
2023-05-19T05:00:09.881Z,12.20
2023-05-19T05:02:37.059Z,12.30
2023-05-19T05:05:04.290Z,12.30
2023-05-19T05:07:32.360Z,12.30
2023-05-19T05:09:59.714Z,12.30
2023-05-19T05:12:26.410Z,12.30
2023-05-19T05:14:53.155Z,12.30
2023-05-19T05:17:20.323Z,12.30
2023-05-19T05:19:47.185Z,12.20
2023-05-19T05:22:13.967Z,12.20
2023-05-19T05:24:40.825Z,12.30
2023-05-19T05:27:08.288Z,12.20
2023-05-19T05:29:35.161Z,12.30
2023-05-19T05:32:01.897Z,12.30
2023-05-19T05:34:28.555Z,12.30
2023-05-19T05:36:55.221Z,12.30
2023-05-19T05:39:21.905Z,12.30
2023-05-19T05:41:48.498Z,12.30
2023-05-19T05:44:15.124Z,12.30
2023-05-19T05:46:41.911Z,12.30
2023-05-19T05:49:08.811Z,12.10
2023-05-19T05:51:35.931Z,12.10
2023-05-19T05:54:02.654Z,11.90
2023-05-19T05:56:29.447Z,11.90
2023-05-19T05:58:56.765Z,11.90
2023-05-19T06:01:24.004Z,11.90
2023-05-19T06:03:50.949Z,11.90
2023-05-19T06:06:17.700Z,11.90
2023-05-19T06:08:44.297Z,11.90
2023-05-19T06:11:11.048Z,11.90
2023-05-19T06:13:38.346Z,11.90
2023-05-19T06:16:05.978Z,11.90
2023-05-19T06:18:32.588Z,12.00
2023-05-19T06:20:59.309Z,12.00
2023-05-19T06:23:26.994Z,12.10
2023-05-19T06:25:53.664Z,12.10
2023-05-19T06:28:20.411Z,12.10
2023-05-19T06:30:47.052Z,12.20
2023-05-19T06:33:13.851Z,12.10
2023-05-19T06:35:40.499Z,12.10
2023-05-19T06:38:07.205Z,12.10
2023-05-19T06:40:34.026Z,12.10
2023-05-19T06:43:00.906Z,12.10
2023-05-19T06:45:27.477Z,12.10
2023-05-19T06:47:54.660Z,12.00
2023-05-19T06:50:21.864Z,12.00
2023-05-19T06:52:48.509Z,12.10
2023-05-19T06:55:15.086Z,12.10
2023-05-19T06:57:41.692Z,12.20
2023-05-19T07:00:30.612Z,12.20
2023-05-19T07:02:57.318Z,12.30
2023-05-19T07:05:24.013Z,12.30
2023-05-19T07:07:50.689Z,12.40
2023-05-19T07:10:17.467Z,12.40
2023-05-19T07:12:44.133Z,12.50
2023-05-19T07:15:11.085Z,12.60
2023-05-19T07:17:37.760Z,12.70
2023-05-19T07:20:07.007Z,12.70
2023-05-19T07:22:36.935Z,12.80
2023-05-19T07:25:03.582Z,12.90
2023-05-19T07:27:30.168Z,12.90
2023-05-19T07:29:56.804Z,12.90
2023-05-19T07:32:23.619Z,12.90
2023-05-19T07:34:50.523Z,13.00
2023-05-19T07:37:17.233Z,13.00
2023-05-19T07:39:43.906Z,13.10
2023-05-19T07:42:10.500Z,13.10
2023-05-19T07:44:37.243Z,13.10
2023-05-19T07:47:03.983Z,13.20
2023-05-19T07:49:30.658Z,13.20
2023-05-19T07:51:57.237Z,13.20
2023-05-19T07:54:23.911Z,13.30
2023-05-19T07:56:50.583Z,13.30
2023-05-19T07:59:17.255Z,13.30
2023-05-19T08:01:43.936Z,13.40
2023-05-19T08:04:12.995Z,13.40
2023-05-19T08:06:40.136Z,13.50
2023-05-19T08:09:06.756Z,13.50
2023-05-19T08:11:33.586Z,13.50
2023-05-19T08:14:00.438Z,13.60
2023-05-19T08:16:27.082Z,13.70
2023-05-19T08:18:54.932Z,13.70
2023-05-19T08:21:21.783Z,13.70
2023-05-19T08:23:48.371Z,13.80
2023-05-19T08:26:15.422Z,13.90
2023-05-19T08:28:42.088Z,13.90
2023-05-19T08:31:08.800Z,14.00
2023-05-19T08:33:35.388Z,14.10
2023-05-19T08:36:02.100Z,14.10
2023-05-19T08:38:28.820Z,14.20
2023-05-19T08:40:55.802Z,14.20
2023-05-19T08:43:22.511Z,14.20
2023-05-19T08:45:49.934Z,14.30
2023-05-19T08:48:17.236Z,14.30
2023-05-19T08:50:47.370Z,14.40
2023-05-19T08:53:32.442Z,14.40
2023-05-19T08:56:10.843Z,14.50
2023-05-19T08:58:41.467Z,14.60
2023-05-19T09:01:08.449Z,14.80
2023-05-19T09:03:38.503Z,14.90
2023-05-19T09:06:07.137Z,15.10
2023-05-19T09:08:34.345Z,15.20
2023-05-19T09:11:01.081Z,15.30
2023-05-19T09:13:28.152Z,15.40
2023-05-19T09:15:56.246Z,15.50
2023-05-19T09:18:24.148Z,15.60
2023-05-19T09:20:50.998Z,15.60
2023-05-19T09:23:18.218Z,15.70
2023-05-19T09:25:49.201Z,15.70
2023-05-19T09:28:23.966Z,15.80
2023-05-19T09:30:58.513Z,15.80
2023-05-19T09:33:25.101Z,15.90
2023-05-19T09:35:51.718Z,16.10
2023-05-19T09:38:19.177Z,16.20
2023-05-19T09:40:48.266Z,16.30
2023-05-19T09:43:14.979Z,16.30
2023-05-19T09:45:41.698Z,16.40
2023-05-19T09:48:08.392Z,16.50
2023-05-19T09:50:35.661Z,16.50
2023-05-19T09:53:03.840Z,16.50
2023-05-19T09:55:33.005Z,16.60
2023-05-19T09:58:01.183Z,16.60
2023-05-19T10:00:28.445Z,16.60
2023-05-19T10:02:55.950Z,16.70
2023-05-19T10:05:23.732Z,16.90
2023-05-19T10:07:52.330Z,17.00
2023-05-19T10:10:21.948Z,17.10
2023-05-19T10:12:49.055Z,17.10
2023-05-19T10:15:16.530Z,17.10
2023-05-19T10:17:43.737Z,17.10
2023-05-19T10:20:12.544Z,17.20
2023-05-19T10:22:39.782Z,17.20
2023-05-19T10:25:07.080Z,17.10
2023-05-19T10:27:35.384Z,17.10
2023-05-19T10:30:12.127Z,17.20
2023-05-19T10:32:40.536Z,17.30
2023-05-19T10:35:10.537Z,17.40
2023-05-19T10:37:40.152Z,17.40
2023-05-19T10:40:09.942Z,17.50
2023-05-19T10:42:40.702Z,17.50
2023-05-19T10:45:14.155Z,17.50
2023-05-19T10:47:43.981Z,17.70
2023-05-19T10:50:11.161Z,17.70
2023-05-19T10:52:38.622Z,17.70
2023-05-19T10:55:08.732Z,17.80
2023-05-19T10:57:35.601Z,17.90
2023-05-19T11:00:11.245Z,18.00
2023-05-19T11:02:41.979Z,18.00
2023-05-19T11:05:09.600Z,17.90
2023-05-19T11:07:36.392Z,17.80
2023-05-19T11:10:09.591Z,17.80
2023-05-19T11:12:44.788Z,17.90
2023-05-19T11:15:11.993Z,17.90
2023-05-19T11:17:39.722Z,17.90
2023-05-19T11:20:07.929Z,17.90
2023-05-19T11:22:36.208Z,17.80
2023-05-19T11:25:04.039Z,17.90
2023-05-19T11:27:34.617Z,17.80
2023-05-19T11:30:02.325Z,17.80
2023-05-19T11:32:30.318Z,17.90
2023-05-19T11:34:57.582Z,18.00
2023-05-19T11:37:24.182Z,18.20
2023-05-19T11:39:52.107Z,18.20
2023-05-19T11:42:18.941Z,18.30
2023-05-19T11:44:48.301Z,18.30
2023-05-19T11:47:15.526Z,18.30
2023-05-19T11:49:45.967Z,18.30
2023-05-19T11:52:12.760Z,18.40
2023-05-19T11:54:41.758Z,18.60
2023-05-19T11:57:09.045Z,18.70
2023-05-19T11:59:36.521Z,18.80
2023-05-19T12:02:14.292Z,19.00
2023-05-19T12:04:41.069Z,18.90
2023-05-19T12:07:08.166Z,18.80
2023-05-19T12:09:35.027Z,18.80
2023-05-19T12:12:02.623Z,18.70
2023-05-19T12:14:30.212Z,18.70
2023-05-19T12:16:57.472Z,18.60
2023-05-19T12:19:25.825Z,18.40
2023-05-19T12:21:53.623Z,18.50
2023-05-19T12:24:20.707Z,18.50
2023-05-19T12:26:47.475Z,18.70
2023-05-19T12:29:14.097Z,18.70
2023-05-19T12:31:40.750Z,18.80
2023-05-19T12:34:07.431Z,18.70
2023-05-19T12:36:34.293Z,18.70
2023-05-19T12:39:00.965Z,18.80
2023-05-19T12:41:29.023Z,18.90
2023-05-19T12:43:55.619Z,19.00
2023-05-19T12:46:22.638Z,19.20
2023-05-19T12:48:49.700Z,19.30
2023-05-19T12:51:17.512Z,19.30
2023-05-19T12:53:44.591Z,19.40
2023-05-19T12:56:12.921Z,19.30
2023-05-19T12:58:39.800Z,19.30
2023-05-19T13:01:08.070Z,19.30
2023-05-19T13:03:39.926Z,19.30
2023-05-19T13:06:06.579Z,19.30
2023-05-19T13:08:33.789Z,19.30
2023-05-19T13:11:00.580Z,19.20
2023-05-19T13:13:27.201Z,19.10
2023-05-19T13:15:53.836Z,19.00
2023-05-19T13:18:20.495Z,19.00
2023-05-19T13:20:49.084Z,18.90
2023-05-19T13:23:15.952Z,18.70
2023-05-19T13:25:42.705Z,18.70
2023-05-19T13:28:09.583Z,18.70
2023-05-19T13:30:37.905Z,18.60
2023-05-19T13:33:04.999Z,18.60
2023-05-19T13:35:36.953Z,18.60
2023-05-19T13:38:05.407Z,18.70
2023-05-19T13:40:34.683Z,18.80
2023-05-19T13:43:02.369Z,18.70
2023-05-19T13:45:29.127Z,18.80
2023-05-19T13:47:55.960Z,18.80
2023-05-19T13:50:22.681Z,18.80
2023-05-19T13:52:49.322Z,18.70
2023-05-19T13:55:16.336Z,18.70
2023-05-19T13:57:44.106Z,18.70
2023-05-19T14:00:11.487Z,18.70
2023-05-19T14:02:38.245Z,18.70
2023-05-19T14:05:05.839Z,18.80
2023-05-19T14:07:34.666Z,18.80
2023-05-19T14:10:01.923Z,18.60
2023-05-19T14:12:38.203Z,18.50
2023-05-19T14:15:11.446Z,18.50
2023-05-19T14:17:38.348Z,18.40
2023-05-19T14:20:05.519Z,18.40
2023-05-19T14:22:32.347Z,18.30
2023-05-19T14:25:00.399Z,18.30
2023-05-19T14:27:27.390Z,18.30
2023-05-19T14:29:54.277Z,18.30
2023-05-19T14:32:21.358Z,18.40
2023-05-19T14:34:48.109Z,18.40
2023-05-19T14:37:14.764Z,18.40
2023-05-19T14:39:41.374Z,18.30
2023-05-19T14:42:07.988Z,18.30
2023-05-19T14:44:34.587Z,18.20
2023-05-19T14:47:01.838Z,18.00
2023-05-19T14:49:28.457Z,17.90
2023-05-19T14:51:55.167Z,17.80
2023-05-19T14:54:21.878Z,17.70
2023-05-19T14:56:48.544Z,17.60
2023-05-19T14:59:15.182Z,17.60
2023-05-19T15:01:41.881Z,17.50
2023-05-19T15:04:08.629Z,17.50
2023-05-19T15:06:35.414Z,17.60
2023-05-19T15:09:02.063Z,17.60
2023-05-19T15:11:28.688Z,17.60
2023-05-19T15:13:55.376Z,17.50
2023-05-19T15:16:21.975Z,17.60
2023-05-19T15:18:48.633Z,17.50
2023-05-19T15:21:15.371Z,17.40
2023-05-19T15:23:41.980Z,17.40
2023-05-19T15:26:08.697Z,17.40
2023-05-19T15:28:35.640Z,17.40
2023-05-19T15:31:02.306Z,17.40
2023-05-19T15:33:29.021Z,17.40
2023-05-19T15:35:56.848Z,17.30
2023-05-19T15:38:23.448Z,17.30
2023-05-19T15:40:50.045Z,17.30
2023-05-19T15:43:17.474Z,17.30
2023-05-19T15:45:44.093Z,17.20
2023-05-19T15:48:11.507Z,17.30
2023-05-19T15:50:38.369Z,17.30
2023-05-19T15:53:07.728Z,17.10
2023-05-19T15:55:34.448Z,17.10
2023-05-19T15:58:01.078Z,17.10
2023-05-19T16:00:27.747Z,17.10
2023-05-19T16:02:54.458Z,17.00
2023-05-19T16:05:21.139Z,17.00
2023-05-19T16:07:47.735Z,16.90
2023-05-19T16:10:14.438Z,17.00
2023-05-19T16:12:41.122Z,16.90
2023-05-19T16:15:07.960Z,16.90
2023-05-19T16:17:34.928Z,16.90
2023-05-19T16:20:01.646Z,16.80
2023-05-19T16:22:28.433Z,16.80
2023-05-19T16:24:55.030Z,16.80
2023-05-19T16:27:22.684Z,16.70
2023-05-19T16:29:49.785Z,16.70
2023-05-19T16:32:16.469Z,16.70
2023-05-19T16:34:43.146Z,16.70
2023-05-19T16:37:09.733Z,16.60
2023-05-19T16:39:37.287Z,16.60
2023-05-19T16:42:04.495Z,16.60
2023-05-19T16:44:31.193Z,16.60
2023-05-19T16:46:57.950Z,16.50
2023-05-19T16:49:24.631Z,16.50
2023-05-19T16:51:52.980Z,16.50
2023-05-19T16:54:19.902Z,16.40
2023-05-19T16:56:46.569Z,16.40
2023-05-19T16:59:13.765Z,16.40
2023-05-19T17:01:40.767Z,16.40
2023-05-19T17:04:07.444Z,16.30
2023-05-19T17:06:34.183Z,16.30
2023-05-19T17:09:00.850Z,16.30
2023-05-19T17:11:27.803Z,16.20
2023-05-19T17:13:54.455Z,16.20
2023-05-19T17:16:21.339Z,16.20
2023-05-19T17:18:48.132Z,16.20
2023-05-19T17:21:14.964Z,16.10
2023-05-19T17:23:41.883Z,16.20
2023-05-19T17:26:08.840Z,16.20
2023-05-19T17:28:35.712Z,16.10
2023-05-19T17:31:08.997Z,16.10
2023-05-19T17:33:36.204Z,16.10
2023-05-19T17:36:03.665Z,16.00
2023-05-19T17:38:32.200Z,16.00
2023-05-19T17:40:59.230Z,16.00
2023-05-19T17:43:26.088Z,16.00
2023-05-19T17:45:52.915Z,16.00
2023-05-19T17:48:19.681Z,15.90
2023-05-19T17:50:46.735Z,15.90
2023-05-19T17:53:13.823Z,15.80
2023-05-19T17:55:40.849Z,15.80
2023-05-19T17:58:07.557Z,15.80
2023-05-19T18:00:34.560Z,15.80
2023-05-19T18:03:01.816Z,15.70
2023-05-19T18:05:28.660Z,15.70
2023-05-19T18:07:56.266Z,15.70
2023-05-19T18:10:24.674Z,15.70
2023-05-19T18:12:51.363Z,15.70
2023-05-19T18:15:17.986Z,15.60
2023-05-19T18:17:44.602Z,15.60
2023-05-19T18:20:11.672Z,15.60
2023-05-19T18:22:38.269Z,15.50
2023-05-19T18:25:05.180Z,15.60
2023-05-19T18:27:33.364Z,15.50
2023-05-19T18:29:59.999Z,15.50
2023-05-19T18:32:26.663Z,15.50
2023-05-19T18:34:53.252Z,15.50
2023-05-19T18:37:19.849Z,15.50
2023-05-19T18:39:46.658Z,15.50
2023-05-19T18:42:13.275Z,15.50
2023-05-19T18:44:39.929Z,15.50
2023-05-19T18:47:06.709Z,15.50
2023-05-19T18:49:33.384Z,15.50
2023-05-19T18:52:00.107Z,15.40
2023-05-19T18:54:26.774Z,15.40
2023-05-19T18:56:53.980Z,15.40
2023-05-19T18:59:20.642Z,15.40
2023-05-19T19:01:47.741Z,15.30
2023-05-19T19:04:16.592Z,15.30
2023-05-19T19:06:43.962Z,15.30
2023-05-19T19:09:13.366Z,15.20
2023-05-19T19:11:40.491Z,15.20
2023-05-19T19:14:09.830Z,15.20
2023-05-19T19:16:36.688Z,15.20
2023-05-19T19:19:03.511Z,15.10
2023-05-19T19:21:30.242Z,15.00
2023-05-19T19:23:56.903Z,14.90
2023-05-19T19:26:25.280Z,14.80
2023-05-19T19:28:51.883Z,14.80
2023-05-19T19:31:18.693Z,14.70
2023-05-19T19:33:45.497Z,14.70
2023-05-19T19:36:12.104Z,14.60
2023-05-19T19:38:38.773Z,14.60
2023-05-19T19:41:05.364Z,14.60
2023-05-19T19:43:32.031Z,14.60
2023-05-19T19:46:00.586Z,14.60
2023-05-19T19:48:27.937Z,14.60
2023-05-19T19:50:55.032Z,14.60
2023-05-19T19:53:21.953Z,14.60
2023-05-19T19:55:57.652Z,14.50
2023-05-19T19:58:24.565Z,14.50
2023-05-19T20:00:56.038Z,14.50
2023-05-19T20:03:22.863Z,14.40
2023-05-19T20:05:49.801Z,14.40
2023-05-19T20:08:16.492Z,14.30
2023-05-19T20:10:43.090Z,14.30
2023-05-19T20:13:09.859Z,14.20
2023-05-19T20:15:36.567Z,14.20
2023-05-19T20:18:03.295Z,14.20
2023-05-19T20:20:30.290Z,14.10
2023-05-19T20:22:56.862Z,14.10
2023-05-19T20:25:23.603Z,14.00
2023-05-19T20:27:50.280Z,14.00
2023-05-19T20:30:16.919Z,13.90
2023-05-19T20:32:43.655Z,13.90
2023-05-19T20:35:10.553Z,13.90
2023-05-19T20:37:37.183Z,13.90
2023-05-19T20:40:04.168Z,13.80
2023-05-19T20:42:30.795Z,13.80
2023-05-19T20:44:57.500Z,13.80
2023-05-19T20:47:24.172Z,13.70
2023-05-19T20:49:51.187Z,13.70
2023-05-19T20:52:18.001Z,13.70
2023-05-19T20:54:46.261Z,13.60
2023-05-19T20:57:13.024Z,13.60
2023-05-19T20:59:39.631Z,13.50
2023-05-19T21:02:07.533Z,13.50
2023-05-19T21:04:34.468Z,13.50
2023-05-19T21:07:01.266Z,13.50
2023-05-19T21:09:27.915Z,13.40
2023-05-19T21:11:54.540Z,13.40
2023-05-19T21:14:21.491Z,13.40
2023-05-19T21:16:48.678Z,13.40
2023-05-19T21:19:15.381Z,13.40
2023-05-19T21:21:44.688Z,13.40
2023-05-19T21:24:12.851Z,13.40
2023-05-19T21:26:39.657Z,13.30
2023-05-19T21:29:06.371Z,13.40
2023-05-19T21:31:33.132Z,13.30
2023-05-19T21:33:59.778Z,13.30
2023-05-19T21:36:26.618Z,13.40
2023-05-19T21:38:53.365Z,13.40
2023-05-19T21:41:20.055Z,13.40
2023-05-19T21:43:47.277Z,13.50
2023-05-19T21:46:14.015Z,13.50
2023-05-19T21:48:40.634Z,13.50
2023-05-19T21:51:07.283Z,13.60
2023-05-19T21:53:33.940Z,13.60
2023-05-19T21:56:00.529Z,13.70
2023-05-19T21:58:27.177Z,13.70
2023-05-19T22:00:56.724Z,13.70
2023-05-19T22:03:23.581Z,13.70
2023-05-19T22:05:54.977Z,13.70
2023-05-19T22:08:22.510Z,13.80
2023-05-19T22:10:50.811Z,13.80
2023-05-19T22:13:17.902Z,13.70
2023-05-19T22:15:45.024Z,13.80
2023-05-19T22:18:11.795Z,13.70
2023-05-19T22:20:38.635Z,13.70
2023-05-19T22:23:05.500Z,13.70
2023-05-19T22:25:32.175Z,13.70
2023-05-19T22:28:01.065Z,13.70
2023-05-19T22:30:28.016Z,13.70
2023-05-19T22:32:54.906Z,13.70
2023-05-19T22:35:21.750Z,13.70
2023-05-19T22:37:48.404Z,13.70
2023-05-19T22:40:15.104Z,13.70
2023-05-19T22:42:41.781Z,13.60
2023-05-19T22:45:08.780Z,13.60
2023-05-19T22:47:35.501Z,13.60
2023-05-19T22:50:02.234Z,13.60
2023-05-19T22:52:28.896Z,13.70
2023-05-19T22:54:55.560Z,13.70
2023-05-19T22:57:22.177Z,13.70
2023-05-19T22:59:48.795Z,13.70
2023-05-19T23:02:15.641Z,13.70
2023-05-19T23:04:42.243Z,13.70
2023-05-19T23:07:08.871Z,13.70
2023-05-19T23:09:35.509Z,13.70
2023-05-19T23:12:02.155Z,13.60
2023-05-19T23:14:28.852Z,13.60
2023-05-19T23:16:55.917Z,13.70
2023-05-19T23:19:22.829Z,13.70
2023-05-19T23:21:49.600Z,13.70
2023-05-19T23:24:16.271Z,13.70
2023-05-19T23:26:44.107Z,13.60
2023-05-19T23:29:11.764Z,13.70
2023-05-19T23:31:38.613Z,13.70
2023-05-19T23:34:05.244Z,13.70
2023-05-19T23:36:31.997Z,13.70
2023-05-19T23:39:00.081Z,13.70
2023-05-19T23:41:26.806Z,13.70
2023-05-19T23:43:53.498Z,13.70
2023-05-19T23:46:20.196Z,13.70
2023-05-19T23:48:47.317Z,13.70
2023-05-19T23:51:13.981Z,13.70
2023-05-19T23:53:40.785Z,13.70
2023-05-19T23:56:07.549Z,13.70
2023-05-19T23:58:34.169Z,13.70
